Time;durP1;ratioP1;P1;durP2;ratioP2;P2;SDS_P1;SDS_P2;PMS_P1;PMS_P2;Temp;Humidity;BMP_temperature;BMP_pressure;BME280_temperature;BME280_humidity;BME280_pressure;Samples;Min_cycle;Max_cycle;Signal;HPM_P1;HPM_P2
2022/10/27 00:01:17;;;;;;;12.73;6.30;;;14.50;99.90;;;;;;5037405;28;20213;-84
2022/10/27 00:03:44;;;;;;;12.00;5.33;;;14.50;99.90;;;;;;5041919;28;20190;-83
2022/10/27 00:06:11;;;;;;;12.53;5.57;;;14.60;99.90;;;;;;5041600;28;20205;-83
2022/10/27 00:08:37;;;;;;;18.70;6.30;;;14.50;99.90;;;;;;5032647;28;20213;-83
2022/10/27 00:11:07;;;;;;;15.20;6.33;;;14.60;99.90;;;;;;5038264;28;20277;-82
2022/10/27 00:13:35;;;;;;;16.53;6.63;;;14.60;99.90;;;;;;5041650;28;20584;-83
2022/10/27 00:16:06;;;;;;;11.73;5.60;;;14.50;99.90;;;;;;5037254;28;20236;-82
2022/10/27 00:18:34;;;;;;;8.57;4.90;;;14.50;99.90;;;;;;5023015;28;20246;-83
2022/10/27 00:21:09;;;;;;;15.10;5.90;;;14.50;99.90;;;;;;5036638;28;20296;-82
2022/10/27 00:23:37;;;;;;;12.83;6.00;;;14.40;99.90;;;;;;5023276;28;20618;-83
2022/10/27 00:26:04;;;;;;;11.70;6.40;;;14.40;99.90;;;;;;5028598;28;20233;-83
2022/10/27 00:28:31;;;;;;;13.00;6.40;;;14.40;99.90;;;;;;5033022;28;20237;-82
2022/10/27 00:31:11;;;;;;;15.70;6.30;;;14.30;99.90;;;;;;5038808;28;20234;-83
2022/10/27 00:33:38;;;;;;;18.57;7.10;;;14.30;99.90;;;;;;5036270;28;20276;-83
2022/10/27 00:36:10;;;;;;;12.40;6.83;;;14.30;99.90;;;;;;5033987;28;20233;-83
2022/10/27 00:38:41;;;;;;;12.33;6.80;;;14.20;99.90;;;;;;5039324;28;20238;-82
2022/10/27 00:41:22;;;;;;;14.10;7.47;;;14.20;99.90;;;;;;5035186;28;20222;-84
2022/10/27 00:43:48;;;;;;;13.83;7.10;;;14.20;99.90;;;;;;5031286;28;20218;-83
2022/10/27 00:46:39;;;;;;;16.50;7.43;;;14.20;99.90;;;;;;5042409;28;20308;-83
2022/10/27 00:49:11;;;;;;;15.47;7.83;;;14.10;99.90;;;;;;5040587;28;20613;-82
2022/10/27 00:51:46;;;;;;;16.00;8.80;;;14.10;99.90;;;;;;5037355;28;20205;-82
2022/10/27 00:54:15;;;;;;;15.53;7.57;;;14.10;99.90;;;;;;5033962;28;20324;-82
2022/10/27 00:56:44;;;;;;;13.73;8.47;;;14.10;99.90;;;;;;5041228;28;20507;-83
2022/10/27 00:59:11;;;;;;;13.07;7.43;;;14.00;99.90;;;;;;5040334;28;20203;-83
2022/10/27 01:01:39;;;;;;;16.80;8.30;;;14.00;99.90;;;;;;5037169;28;20194;-82
2022/10/27 01:04:08;;;;;;;19.57;8.83;;;13.90;99.90;;;;;;5038635;28;20653;-83
2022/10/27 01:06:36;;;;;;;20.53;10.27;;;13.90;99.90;;;;;;5019241;28;20202;-82
2022/10/27 01:09:07;;;;;;;21.77;9.60;;;13.90;99.90;;;;;;5039686;28;20225;-83
2022/10/27 01:11:36;;;;;;;19.37;9.73;;;13.90;99.90;;;;;;5035616;28;20233;-82
2022/10/27 01:14:03;;;;;;;16.40;10.17;;;13.80;99.90;;;;;;5036540;28;20238;-82
2022/10/27 01:16:51;;;;;;;19.10;9.57;;;13.50;99.90;;;;;;5026352;28;20242;-83
2022/10/27 01:19:53;;;;;;;21.20;10.37;;;13.90;99.90;;;;;;5036020;28;20214;-83
2022/10/27 01:22:43;;;;;;;20.67;10.47;;;13.80;99.90;;;;;;5036068;28;20228;-83
2022/10/27 01:25:43;;;;;;;23.40;11.00;;;13.80;99.90;;;;;;5033775;28;20205;-81
2022/10/27 01:28:29;;;;;;;17.93;11.20;;;13.80;99.90;;;;;;5023893;28;20237;-84
2022/10/27 01:31:15;;;;;;;18.80;10.97;;;13.80;99.90;;;;;;5040941;28;20247;-83
2022/10/27 01:33:42;;;;;;;19.40;11.00;;;14.70;99.90;;;;;;5046504;28;20208;-83
2022/10/27 01:36:21;;;;;;;21.30;12.00;;;13.80;99.90;;;;;;5044120;28;20257;-84
2022/10/27 01:39:26;;;;;;;20.23;11.63;;;13.80;99.90;;;;;;5043961;28;20222;-84
2022/10/27 01:42:03;;;;;;;15.43;10.17;;;13.80;99.90;;;;;;5033184;28;20277;-83
2022/10/27 01:44:36;;;;;;;20.37;10.83;;;14.00;99.90;;;;;;5033748;28;20224;-83
2022/10/27 01:47:04;;;;;;;22.33;11.37;;;13.70;99.90;;;;;;5035027;28;20217;-83
2022/10/27 01:49:37;;;;;;;21.60;11.37;;;13.60;99.90;;;;;;5018109;28;20309;-82
2022/10/27 01:52:36;;;;;;;20.97;11.73;;;13.60;99.90;;;;;;5025355;28;20202;-82
2022/10/27 01:55:03;;;;;;;18.97;11.93;;;13.60;99.90;;;;;;5036226;28;20230;-83
2022/10/27 01:57:56;;;;;;;20.00;11.53;;;13.60;99.90;;;;;;5042094;28;20206;-82
2022/10/27 02:00:24;;;;;;;23.83;12.07;;;13.50;99.90;;;;;;5042302;28;20245;-83
2022/10/27 02:03:00;;;;;;;20.10;12.07;;;13.50;99.90;;;;;;5034506;28;20279;-83
2022/10/27 02:06:01;;;;;;;22.53;11.70;;;13.50;99.90;;;;;;5037335;28;20278;-84
2022/10/27 02:08:55;;;;;;;17.33;11.40;;;14.30;99.90;;;;;;5026236;28;20296;-81
2022/10/27 02:11:22;;;;;;;19.90;11.90;;;;;;;;;;5042190;28;20322;-81
2022/10/27 02:13:49;;;;;;;24.03;13.03;;;13.40;99.90;;;;;;5044641;28;20340;-82
2022/10/27 02:16:24;;;;;;;27.20;14.37;;;13.40;99.90;;;;;;5038543;28;20265;-83
2022/10/27 02:19:06;;;;;;;26.23;13.20;;;13.40;99.90;;;;;;5041071;28;20687;-82
2022/10/27 02:21:36;;;;;;;23.07;12.87;;;13.40;99.90;;;;;;5042143;28;20240;-84
2022/10/27 02:24:05;;;;;;;19.80;12.47;;;13.40;99.90;;;;;;5021885;28;20270;-83
2022/10/27 02:26:52;;;;;;;23.47;12.27;;;13.40;99.90;;;;;;5017885;28;20277;-82
2022/10/27 02:29:35;;;;;;;21.13;13.33;;;13.40;99.90;;;;;;5037709;28;20222;-83
2022/10/27 02:32:06;;;;;;;21.83;13.03;;;13.40;99.90;;;;;;5041023;28;20618;-83
2022/10/27 02:34:36;;;;;;;28.53;12.63;;;13.40;99.90;;;;;;5034188;28;20226;-84
2022/10/27 02:37:05;;;;;;;20.73;12.40;;;13.40;99.90;;;;;;5029274;28;20206;-83
2022/10/27 02:39:31;;;;;;;22.07;13.30;;;13.30;99.90;;;;;;5026154;28;20213;-84
2022/10/27 02:41:58;;;;;;;25.40;13.60;;;13.30;99.90;;;;;;5029555;28;20208;-83
2022/10/27 02:44:25;;;;;;;22.80;13.37;;;13.30;99.90;;;;;;5029751;28;20345;-83
2022/10/27 02:46:51;;;;;;;30.97;14.40;;;13.30;99.90;;;;;;5027871;28;20198;-83
2022/10/27 02:49:20;;;;;;;25.73;14.30;;;13.30;99.90;;;;;;5024710;28;20310;-83
2022/10/27 02:51:47;;;;;;;29.20;14.30;;;13.30;99.90;;;;;;5028292;28;20186;-82
2022/10/27 02:54:17;;;;;;;27.00;13.27;;;13.30;99.90;;;;;;5023111;28;20213;-84
2022/10/27 02:56:44;;;;;;;18.07;11.63;;;13.30;99.90;;;;;;5041290;28;20225;-83
2022/10/27 02:59:11;;;;;;;26.13;14.23;;;13.40;99.90;;;;;;5034404;28;20210;-84
2022/10/27 03:01:38;;;;;;;23.83;13.83;;;13.20;99.90;;;;;;5036393;28;20301;-83
2022/10/27 03:04:05;;;;;;;26.73;15.07;;;13.20;99.90;;;;;;5027915;28;20233;-83
2022/10/27 03:06:32;;;;;;;28.47;15.47;;;13.20;99.90;;;;;;5032005;28;20210;-84
2022/10/27 03:08:59;;;;;;;29.17;15.30;;;13.20;99.90;;;;;;5030480;28;20212;-82
2022/10/27 03:11:26;;;;;;;30.60;15.03;;;13.30;99.90;;;;;;5017119;28;20296;-83
2022/10/27 03:13:53;;;;;;;30.93;14.30;;;13.20;99.90;;;;;;5030328;28;20670;-82
2022/10/27 03:16:20;;;;;;;23.70;13.73;;;13.20;99.90;;;;;;5029021;28;20333;-83
2022/10/27 03:18:46;;;;;;;25.33;13.50;;;13.10;99.90;;;;;;5027555;28;20329;-83
2022/10/27 03:21:14;;;;;;;26.83;14.07;;;13.10;99.90;;;;;;5028485;28;20233;-82
2022/10/27 03:23:41;;;;;;;26.30;13.30;;;13.10;99.90;;;;;;5023478;28;20645;-84
2022/10/27 03:26:08;;;;;;;26.33;14.57;;;13.10;99.90;;;;;;5026990;28;20260;-84
2022/10/27 03:28:35;;;;;;;23.03;13.97;;;13.10;99.90;;;;;;5031239;28;20202;-84
2022/10/27 03:31:04;;;;;;;25.60;14.17;;;13.00;99.90;;;;;;5029000;28;20328;-83
2022/10/27 03:33:32;;;;;;;26.13;14.43;;;13.10;99.90;;;;;;5027577;28;20274;-84
2022/10/27 03:35:59;;;;;;;26.93;15.33;;;13.10;99.90;;;;;;5035699;28;20317;-82
2022/10/27 03:38:26;;;;;;;28.93;15.70;;;13.10;99.90;;;;;;5041948;28;20218;-82
2022/10/27 03:40:53;;;;;;;29.80;14.23;;;13.10;99.90;;;;;;5039817;28;20210;-83
2022/10/27 03:43:19;;;;;;;27.23;15.00;;;13.10;99.90;;;;;;5034421;28;20930;-83
2022/10/27 03:45:51;;;;;;;29.87;15.53;;;13.20;99.90;;;;;;5035707;28;20261;-83
2022/10/27 03:48:24;;;;;;;28.97;16.40;;;13.20;99.90;;;;;;5033437;28;20211;-85
2022/10/27 03:50:50;;;;;;;31.83;17.50;;;13.20;99.90;;;;;;5027033;28;20224;-84
2022/10/27 03:53:17;;;;;;;36.67;18.03;;;13.20;99.90;;;;;;5033140;28;20709;-83
2022/10/27 03:55:46;;;;;;;34.90;18.03;;;13.30;99.90;;;;;;5036139;28;20252;-84
2022/10/27 03:58:15;;;;;;;40.23;20.27;;;13.30;99.90;;;;;;5030149;28;20261;-83
2022/10/27 04:00:44;;;;;;;35.97;19.90;;;13.40;99.90;;;;;;5015600;28;20214;-83
2022/10/27 04:03:12;;;;;;;33.27;18.23;;;13.40;99.90;;;;;;5010368;28;20212;-83
2022/10/27 04:05:39;;;;;;;36.93;19.33;;;13.40;99.90;;;;;;5027837;28;20249;-82
2022/10/27 04:08:06;;;;;;;40.90;20.10;;;13.40;99.90;;;;;;5028280;28;20271;-83
2022/10/27 04:10:33;;;;;;;38.00;20.40;;;13.40;99.90;;;;;;5028035;28;20212;-83
2022/10/27 04:13:00;;;;;;;38.73;21.03;;;13.50;99.90;;;;;;5012367;28;20203;-83
2022/10/27 04:15:27;;;;;;;39.23;22.73;;;13.50;99.90;;;;;;5029145;28;20235;-83
2022/10/27 04:17:56;;;;;;;33.33;19.90;;;13.50;99.90;;;;;;5023163;28;21020;-83
2022/10/27 04:20:23;;;;;;;38.90;21.23;;;13.60;99.90;;;;;;5015571;28;20741;-83
2022/10/27 04:22:58;;;;;;;32.67;19.73;;;13.60;99.90;;;;;;5012243;28;20646;-83
2022/10/27 04:25:26;;;;;;;34.93;21.03;;;13.60;99.90;;;;;;5011073;28;20207;-83
2022/10/27 04:28:04;;;;;;;31.83;18.83;;;13.60;99.90;;;;;;5017763;28;20499;-83
2022/10/27 04:30:31;;;;;;;29.03;20.47;;;13.60;99.90;;;;;;5019118;28;20297;-83
2022/10/27 04:32:58;;;;;;;35.00;19.53;;;13.60;99.90;;;;;;5014297;28;20289;-84
2022/10/27 04:35:26;;;;;;;31.73;18.30;;;13.60;99.90;;;;;;5006557;28;20321;-83
2022/10/27 04:37:57;;;;;;;32.63;19.00;;;13.60;99.90;;;;;;5008612;28;20234;-83
2022/10/27 04:40:24;;;;;;;34.27;20.07;;;13.60;99.90;;;;;;5003352;28;20229;-83
2022/10/27 04:42:51;;;;;;;34.37;16.90;;;13.60;99.90;;;;;;5009568;28;20517;-82
2022/10/27 04:45:18;;;;;;;33.90;18.63;;;13.50;99.90;;;;;;5013082;28;20215;-82
2022/10/27 04:47:46;;;;;;;31.07;19.07;;;13.50;99.90;;;;;;5016074;28;20270;-82
2022/10/27 04:50:23;;;;;;;26.17;18.50;;;13.50;99.90;;;;;;5021550;28;20230;-82
2022/10/27 04:52:59;;;;;;;34.23;18.27;;;13.50;99.90;;;;;;5012532;28;20207;-83
2022/10/27 04:55:31;;;;;;;27.53;16.97;;;13.50;99.90;;;;;;5009831;28;20223;-83
2022/10/27 04:57:58;;;;;;;29.10;18.07;;;13.40;99.90;;;;;;5014203;28;20209;-84
2022/10/27 05:00:26;;;;;;;27.40;17.23;;;13.40;99.90;;;;;;5009707;28;20638;-84
2022/10/27 05:02:55;;;;;;;31.40;17.97;;;13.40;99.90;;;;;;4998019;28;20679;-85
2022/10/27 05:05:25;;;;;;;27.80;17.77;;;13.40;99.90;;;;;;5004277;28;20248;-84
2022/10/27 05:07:56;;;;;;;30.43;17.50;;;13.40;99.90;;;;;;5002972;28;20781;-83
2022/10/27 05:10:23;;;;;;;30.37;17.80;;;13.30;99.90;;;;;;5001559;28;20227;-84
2022/10/27 05:12:50;;;;;;;30.90;17.93;;;13.40;99.90;;;;;;5008617;28;20302;-85
2022/10/27 05:15:18;;;;;;;31.10;17.77;;;13.40;99.90;;;;;;5004285;28;20688;-85
2022/10/27 05:17:46;;;;;;;26.53;17.93;;;13.30;99.90;;;;;;5015433;28;20677;-84
2022/10/27 05:20:14;;;;;;;26.67;17.83;;;13.50;99.90;;;;;;5011127;28;20273;-86
2022/10/27 05:22:43;;;;;;;25.77;17.07;;;13.30;99.90;;;;;;5027563;28;20202;-84
2022/10/27 05:25:11;;;;;;;29.57;17.03;;;13.30;99.90;;;;;;5015519;28;20260;-84
2022/10/27 05:27:39;;;;;;;31.30;17.77;;;13.30;99.90;;;;;;5024833;28;20248;-85
2022/10/27 05:30:07;;;;;;;29.90;17.83;;;13.30;99.90;;;;;;5006689;28;20659;-85
2022/10/27 05:32:35;;;;;;;24.83;16.40;;;13.20;99.90;;;;;;5009831;28;20202;-85
2022/10/27 05:35:04;;;;;;;28.53;16.67;;;13.40;99.90;;;;;;5027452;28;20258;-86
2022/10/27 05:37:30;;;;;;;29.60;17.17;;;13.20;99.90;;;;;;5021707;28;20294;-86
2022/10/27 05:40:03;;;;;;;31.13;16.67;;;13.20;99.90;;;;;;5030938;28;20230;-87
2022/10/27 05:42:29;;;;;;;27.20;16.23;;;13.10;99.90;;;;;;5030658;28;20214;-86
2022/10/27 05:44:56;;;;;;;31.93;18.03;;;13.40;99.90;;;;;;5037911;28;20361;-86
2022/10/27 05:47:26;;;;;;;31.67;17.10;;;13.10;99.90;;;;;;5034091;28;20220;-86
2022/10/27 05:49:56;;;;;;;29.50;17.40;;;13.10;99.90;;;;;;5016239;28;20237;-86
2022/10/27 05:52:26;;;;;;;26.67;16.63;;;13.20;99.90;;;;;;5013534;28;20202;-86
2022/10/27 05:54:54;;;;;;;30.20;16.70;;;13.10;99.90;;;;;;5041099;28;20202;-87
2022/10/27 05:57:22;;;;;;;31.07;18.60;;;13.00;99.90;;;;;;5047340;28;20274;-86
2022/10/27 05:59:49;;;;;;;30.33;17.57;;;13.10;99.90;;;;;;5048473;28;20214;-87
2022/10/27 06:02:17;;;;;;;32.03;17.60;;;13.20;99.90;;;;;;5012980;28;20206;-86
2022/10/27 06:04:46;;;;;;;31.10;17.57;;;13.20;99.90;;;;;;5024820;28;20222;-87
2022/10/27 06:07:13;;;;;;;31.03;17.87;;;13.00;99.90;;;;;;5038370;28;20195;-85
2022/10/27 06:09:41;;;;;;;34.97;17.93;;;13.00;99.90;;;;;;5038392;28;20205;-86
2022/10/27 06:12:10;;;;;;;33.00;16.77;;;13.00;99.90;;;;;;5042661;28;21500;-84
2022/10/27 06:14:39;;;;;;;28.80;17.93;;;13.10;99.90;;;;;;5008276;28;20642;-82
2022/10/27 06:17:05;;;;;;;31.97;17.77;;;12.30;99.90;;;;;;5004996;28;20288;-85
2022/10/27 06:19:33;;;;;;;29.57;16.27;;;13.10;99.90;;;;;;5029159;28;20222;-82
2022/10/27 06:22:00;;;;;;;29.67;15.87;;;12.90;99.90;;;;;;5028191;28;20666;-84
2022/10/27 06:24:27;;;;;;;29.63;17.20;;;12.80;99.90;;;;;;5008228;28;20687;-83
2022/10/27 06:26:55;;;;;;;35.40;16.50;;;12.90;99.90;;;;;;5027454;28;20230;-85
2022/10/27 06:29:22;;;;;;;28.83;16.20;;;12.80;99.90;;;;;;5027552;28;20202;-83
2022/10/27 06:31:49;;;;;;;25.33;16.30;;;12.90;99.90;;;;;;5023083;28;20748;-82
2022/10/27 06:34:16;;;;;;;31.03;17.03;;;12.90;99.90;;;;;;5019182;28;20219;-83
2022/10/27 06:36:43;;;;;;;30.97;16.37;;;13.10;99.90;;;;;;5009516;28;20779;-84
2022/10/27 06:39:10;;;;;;;31.20;16.73;;;12.90;99.90;;;;;;5001959;28;20276;-84
2022/10/27 06:41:37;;;;;;;30.00;17.47;;;12.90;99.90;;;;;;5026627;28;20328;-85
2022/10/27 06:44:04;;;;;;;28.07;16.50;;;13.10;99.90;;;;;;5018093;28;20622;-85
2022/10/27 06:46:33;;;;;;;30.03;15.60;;;13.00;99.90;;;;;;5023254;28;20206;-85
2022/10/27 06:49:00;;;;;;;28.13;16.60;;;12.90;99.90;;;;;;5022632;28;20246;-83
2022/10/27 06:51:27;;;;;;;27.13;15.23;;;12.90;99.90;;;;;;5027723;28;20197;-87
2022/10/27 06:53:54;;;;;;;28.30;15.77;;;13.00;99.90;;;;;;5005958;28;20606;-85
2022/10/27 06:56:21;;;;;;;29.27;15.50;;;13.00;99.90;;;;;;5033141;28;20224;-86
2022/10/27 06:58:50;;;;;;;25.97;16.37;;;13.00;99.90;;;;;;5011518;28;20660;-82
2022/10/27 07:01:21;;;;;;;29.53;15.43;;;13.00;99.90;;;;;;5012876;28;20256;-82
2022/10/27 07:03:49;;;;;;;29.47;15.30;;;13.10;99.90;;;;;;5011416;28;20202;-83
2022/10/27 07:06:18;;;;;;;29.80;14.83;;;13.10;99.90;;;;;;5014433;28;20266;-83
2022/10/27 07:08:48;;;;;;;26.90;13.93;;;13.30;99.90;;;;;;5031226;28;20201;-84
2022/10/27 07:11:15;;;;;;;28.27;14.47;;;13.20;99.90;;;;;;5011691;28;20297;-82
2022/10/27 07:13:42;;;;;;;26.13;14.03;;;13.30;99.90;;;;;;5030872;28;20216;-83
2022/10/27 07:16:11;;;;;;;22.93;13.83;;;13.30;99.90;;;;;;5028780;28;20647;-84
2022/10/27 07:18:40;;;;;;;26.37;14.37;;;13.30;99.90;;;;;;5010095;28;20568;-84
2022/10/27 07:21:08;;;;;;;25.90;14.57;;;14.00;99.90;;;;;;5023729;28;20238;-80
2022/10/27 07:23:35;;;;;;;22.30;14.60;;;13.50;99.90;;;;;;5023979;28;20646;-82
2022/10/27 07:26:01;;;;;;;26.03;13.87;;;13.50;99.90;;;;;;5024084;28;20201;-83
2022/10/27 07:28:28;;;;;;;20.93;12.73;;;13.50;99.90;;;;;;5006060;28;20214;-83
2022/10/27 07:30:55;;;;;;;22.23;13.40;;;13.60;99.90;;;;;;5025049;28;20362;-83
2022/10/27 07:33:22;;;;;;;22.90;12.50;;;13.90;99.90;;;;;;5030147;28;20222;-84
2022/10/27 07:35:51;;;;;;;20.77;11.47;;;13.70;99.90;;;;;;5014385;28;20234;-85
2022/10/27 07:38:19;;;;;;;18.03;11.87;;;14.30;99.90;;;;;;5013725;28;20215;-84
2022/10/27 07:40:46;;;;;;;19.10;11.37;;;13.90;99.90;;;;;;5004582;28;20263;-83
2022/10/27 07:43:13;;;;;;;20.30;11.13;;;13.70;99.90;;;;;;5020440;28;20206;-82
2022/10/27 07:45:41;;;;;;;18.30;11.20;;;14.00;99.90;;;;;;5006630;28;20205;-82
2022/10/27 07:48:14;;;;;;;15.53;10.47;;;14.00;99.90;;;;;;5021631;28;20266;-84
2022/10/27 07:50:43;;;;;;;17.50;10.70;;;14.10;99.90;;;;;;5016500;28;20280;-82
2022/10/27 07:53:11;;;;;;;18.20;10.50;;;14.10;99.90;;;;;;4996496;28;20202;-83
2022/10/27 07:55:38;;;;;;;21.47;10.60;;;13.70;99.90;;;;;;5017924;28;20297;-83
2022/10/27 07:58:13;;;;;;;13.50;9.53;;;14.20;99.90;;;;;;5021305;28;20646;-82
2022/10/27 08:00:45;;;;;;;17.97;9.67;;;14.50;99.90;;;;;;5016044;28;20305;-82
2022/10/27 08:03:16;;;;;;;15.03;10.03;;;14.30;99.90;;;;;;5025674;28;20210;-83
2022/10/27 08:06:10;;;;;;;17.40;9.60;;;14.30;99.90;;;;;;5094254;23;20237;-91
2022/10/27 08:08:58;;;;;;;20.87;9.70;;;14.30;99.90;;;;;;5044785;28;20200;-90
2022/10/27 08:12:10;;;;;;;15.10;9.53;;;14.30;99.90;;;;;;5056653;28;20236;-92
2022/10/27 08:15:09;;;;;;;;;;;;;;;;;;;;;
2022/10/27 08:18:05;;;;;;;12.87;8.40;;;14.60;99.90;;;;;;5073550;28;20227;-91
2022/10/27 08:20:54;;;;;;;15.97;9.60;;;13.80;99.90;;;;;;5060341;28;20220;-91
2022/10/27 08:23:38;;;;;;;15.73;9.53;;;14.50;99.90;;;;;;5056039;28;20201;-90
2022/10/27 08:26:25;;;;;;;;;;;;;;;;;;;;;
2022/10/27 08:29:10;;;;;;;18.07;8.23;;;14.60;99.90;;;;;;5072422;28;20193;-92
2022/10/27 08:31:54;;;;;;;11.90;8.27;;;15.20;99.90;;;;;;5069630;28;20204;-92
2022/10/27 08:35:10;;;;;;;;;;;;;;;;;;;;;
2022/10/27 08:37:48;;;;;;;17.00;8.83;;;;;;;;;;5081328;28;20297;-91
2022/10/27 08:40:50;;;;;;;14.80;7.77;;;14.80;99.90;;;;;;5065052;28;20204;-91
2022/10/27 08:44:20;;;;;;;13.53;7.80;;;14.90;99.90;;;;;;5058038;28;20608;-90
2022/10/27 08:47:16;;;;;;;12.60;7.67;;;;;;;;;;5057777;28;20803;-91
2022/10/27 08:50:25;;;;;;;14.90;7.87;;;15.00;99.90;;;;;;5048542;28;20220;-91
2022/10/27 08:53:25;;;;;;;13.20;8.10;;;15.10;99.90;;;;;;5050694;28;20204;-91
2022/10/27 08:56:24;;;;;;;11.40;7.30;;;15.30;99.90;;;;;;5056008;28;20319;-91
2022/10/27 08:59:23;;;;;;;11.60;7.28;;;15.40;99.90;;;;;;5043343;28;20283;-92
2022/10/27 09:02:56;;;;;;;10.40;7.38;;;15.50;99.90;;;;;;5055567;28;20278;-90
2022/10/27 09:06:27;;;;;;;13.77;7.63;;;15.60;99.90;;;;;;5062016;28;20695;-89
2022/10/27 09:09:34;;;;;;;13.27;6.57;;;16.20;99.90;;;;;;4966530;28;20277;-90
2022/10/27 09:12:26;;;;;;;11.73;6.10;;;15.80;99.90;;;;;;5019802;28;20208;-91
2022/10/27 09:15:30;;;;;;;11.02;6.55;;;;;;;;;;5076785;28;20203;-90
2022/10/27 09:18:29;;;;;;;;;;;;;;;;;;;;;
2022/10/27 09:21:44;;;;;;;10.20;6.10;;;16.10;99.90;;;;;;5099433;28;20222;-89
2022/10/27 09:25:15;;;;;;;8.40;5.43;;;16.30;99.90;;;;;;5081319;28;20203;-90
2022/10/27 09:27:44;;;;;;;12.35;5.32;;;16.40;99.90;;;;;;5068082;28;20191;-90
2022/10/27 09:30:14;;;;;;;13.38;5.15;;;16.70;99.90;;;;;;5094311;28;20183;-91
2022/10/27 09:32:55;;;;;;;10.63;4.95;;;16.60;99.90;;;;;;5091966;28;20275;-91
2022/10/27 09:35:30;;;;;;;10.48;5.28;;;17.50;99.90;;;;;;5089679;28;20271;-90
2022/10/27 09:38:15;;;;;;;8.93;5.50;;;16.70;99.90;;;;;;5087245;28;20224;-92
2022/10/27 09:40:44;;;;;;;7.18;5.40;;;;;;;;;;5090260;28;20225;-95
2022/10/27 09:43:54;;;;;;;7.28;5.15;;;16.90;99.90;;;;;;5091846;28;20214;-92
2022/10/27 09:46:28;;;;;;;7.95;4.32;;;16.90;99.90;;;;;;5087232;28;20286;-91
2022/10/27 09:49:05;;;;;;;7.32;4.60;;;17.10;99.90;;;;;;5080358;28;20255;-92
2022/10/27 09:52:08;;;;;;;;;;;;;;;;;;;;;
2022/10/27 09:55:35;;;;;;;14.07;5.07;;;17.30;99.90;;;;;;5106820;28;20203;-89
2022/10/27 09:59:34;;;;;;;;;;;;;;;;;;;;;
2022/10/27 10:02:27;;;;;;;9.00;4.00;;;17.50;99.90;;;;;;5020757;28;20213;-91
2022/10/27 10:06:05;;;;;;;6.75;4.30;;;17.60;99.90;;;;;;5008081;28;20289;-91
2022/10/27 10:08:42;;;;;;;8.55;4.07;;;17.80;99.90;;;;;;4950513;28;20227;-92
2022/10/27 10:14:22;;;;;;;8.60;3.50;;;18.10;99.90;;;;;;4991193;22;20236;-83
2022/10/27 10:16:50;;;;;;;8.32;3.45;;;18.00;99.90;;;;;;5039793;28;20769;-79
2022/10/27 10:19:21;;;;;;;9.50;3.67;;;18.10;99.90;;;;;;5040125;28;20221;-82
2022/10/27 10:21:55;;;;;;;6.15;3.40;;;18.20;99.90;;;;;;5042125;28;20201;-81
2022/10/27 10:24:29;;;;;;;5.28;3.00;;;18.30;99.90;;;;;;5046504;28;20297;-80
2022/10/27 10:27:00;;;;;;;6.82;3.22;;;18.40;99.90;;;;;;5046346;28;20663;-81
2022/10/27 10:29:45;;;;;;;5.05;2.80;;;18.40;99.90;;;;;;5045741;28;20198;-82
2022/10/27 10:32:20;;;;;;;7.18;2.78;;;18.50;99.90;;;;;;5045476;28;20209;-81
2022/10/27 10:34:49;;;;;;;8.07;3.55;;;18.60;99.90;;;;;;5027942;28;20575;-81
2022/10/27 10:37:41;;;;;;;7.72;2.80;;;18.70;99.90;;;;;;5025173;28;20449;-80
2022/10/27 10:40:28;;;;;;;4.53;2.65;;;18.70;99.90;;;;;;5027864;28;20782;-81
2022/10/27 10:43:15;;;;;;;9.30;3.10;;;18.70;99.90;;;;;;5023818;28;20205;-82
2022/10/27 10:45:51;;;;;;;5.15;2.85;;;18.80;99.90;;;;;;5044415;28;20193;-81
2022/10/27 10:48:38;;;;;;;11.35;2.90;;;18.90;99.90;;;;;;5023112;28;20229;-81
2022/10/27 10:51:07;;;;;;;6.57;2.63;;;19.00;99.90;;;;;;5044296;28;20225;-82
2022/10/27 10:53:48;;;;;;;4.72;2.30;;;19.00;99.90;;;;;;5045093;28;20501;-82
2022/10/27 10:56:32;;;;;;;6.07;2.85;;;19.10;99.90;;;;;;5046725;28;20256;-83
2022/10/27 10:59:17;;;;;;;7.95;2.40;;;19.10;99.90;;;;;;5044355;28;20205;-83
2022/10/27 11:02:02;;;;;;;6.20;2.05;;;19.10;99.90;;;;;;5046521;28;20235;-81
2022/10/27 11:04:38;;;;;;;6.45;2.45;;;19.20;99.90;;;;;;5044979;28;20556;-80
2022/10/27 11:07:14;;;;;;;6.82;2.20;;;19.20;99.90;;;;;;5044159;28;20236;-81
2022/10/27 11:09:56;;;;;;;4.97;2.65;;;19.20;99.90;;;;;;5046161;28;20255;-82
2022/10/27 11:12:47;;;;;;;7.45;2.53;;;19.20;99.90;;;;;;5048243;28;20492;-82
2022/10/27 11:15:20;;;;;;;4.10;1.92;;;19.40;99.90;;;;;;5045155;28;20252;-82
2022/10/27 11:17:50;;;;;;;4.15;1.88;;;19.40;99.90;;;;;;5041719;28;22432;-81
2022/10/27 11:20:25;;;;;;;4.93;2.05;;;19.60;99.90;;;;;;5046842;28;20316;-81
2022/10/27 11:22:52;;;;;;;4.32;1.83;;;;;;;;;;5045114;28;20660;-82
2022/10/27 11:25:33;;;;;;;4.03;1.60;;;19.70;99.90;;;;;;5042545;28;20287;-81
2022/10/27 11:28:15;;;;;;;7.95;2.20;;;19.80;99.90;;;;;;5041498;28;20304;-82
2022/10/27 11:31:02;;;;;;;4.22;1.73;;;19.90;99.90;;;;;;5028219;28;20890;-81
2022/10/27 11:33:49;;;;;;;4.05;1.67;;;20.00;99.90;;;;;;5039975;28;20204;-81
2022/10/27 11:36:22;;;;;;;4.38;1.70;;;20.00;99.90;;;;;;5042559;28;20261;-80
2022/10/27 11:39:03;;;;;;;5.07;1.70;;;20.20;99.90;;;;;;5044633;28;20212;-81
2022/10/27 11:41:43;;;;;;;5.68;1.40;;;20.20;99.90;;;;;;5042947;28;20204;-81
2022/10/27 11:44:28;;;;;;;3.58;1.35;;;20.30;99.90;;;;;;5024087;28;20666;-81
2022/10/27 11:47:02;;;;;;;4.80;1.75;;;20.40;99.90;;;;;;5042794;28;20205;-82
2022/10/27 11:49:37;;;;;;;4.97;1.85;;;20.40;99.90;;;;;;5048931;28;20311;-82
2022/10/27 11:52:21;;;;;;;3.97;1.90;;;20.50;99.90;;;;;;5041044;28;20291;-81
2022/10/27 11:54:48;;;;;;;3.15;1.60;;;20.50;99.90;;;;;;5045900;28;20239;-81
2022/10/27 11:57:33;;;;;;;5.07;2.10;;;20.90;99.90;;;;;;5045943;28;20220;-82
2022/10/27 12:00:09;;;;;;;5.00;1.70;;;20.60;99.90;;;;;;5042232;28;20294;-81
2022/10/27 12:02:56;;;;;;;1.77;1.45;;;20.60;99.90;;;;;;5043793;28;20251;-82
2022/10/27 12:05:45;;;;;;;4.07;1.70;;;20.70;99.90;;;;;;5046132;28;20236;-83
2022/10/27 12:08:33;;;;;;;3.25;1.48;;;20.70;99.90;;;;;;5048499;28;20228;-81
2022/10/27 12:11:20;;;;;;;3.33;1.60;;;20.70;99.90;;;;;;5043030;28;20210;-82
2022/10/27 12:14:09;;;;;;;3.50;1.83;;;20.70;99.90;;;;;;5028567;28;20200;-79
2022/10/27 12:16:41;;;;;;;4.78;1.63;;;20.80;99.90;;;;;;5048092;28;20208;-81
2022/10/27 12:19:25;;;;;;;3.30;1.65;;;20.80;99.90;;;;;;5042771;28;20225;-82
2022/10/27 12:22:05;;;;;;;4.22;1.60;;;21.00;99.90;;;;;;5046199;28;20673;-81
2022/10/27 12:24:54;;;;;;;3.10;1.40;;;21.00;99.90;;;;;;5021830;28;20212;-81
2022/10/27 12:27:33;;;;;;;4.93;1.92;;;21.00;99.90;;;;;;5042288;28;20233;-80
2022/10/27 12:30:24;;;;;;;3.55;1.33;;;21.10;99.90;;;;;;5021921;28;20808;-82
2022/10/27 12:33:15;;;;;;;6.47;1.60;;;21.10;99.90;;;;;;5048282;28;20602;-81
2022/10/27 12:36:07;;;;;;;2.33;1.30;;;21.10;99.90;;;;;;5039873;28;20312;-82
2022/10/27 12:38:43;;;;;;;3.05;1.70;;;21.10;99.90;;;;;;5041377;28;20324;-82
2022/10/27 12:41:28;;;;;;;5.30;1.73;;;21.00;99.90;;;;;;5048048;28;20192;-81
2022/10/27 12:44:21;;;;;;;5.20;1.95;;;21.00;99.90;;;;;;5043665;28;20546;-82
2022/10/27 12:46:52;;;;;;;3.05;1.80;;;20.90;99.90;;;;;;5050024;28;20604;-81
2022/10/27 12:49:46;;;;;;;2.33;1.80;;;20.90;99.90;;;;;;5039909;28;20313;-81
2022/10/27 12:52:25;;;;;;;5.97;1.92;;;20.90;99.90;;;;;;5037478;28;20315;-81
2022/10/27 12:55:11;;;;;;;4.47;1.77;;;20.90;99.90;;;;;;5047511;28;20249;-80
2022/10/27 12:57:50;;;;;;;4.40;1.80;;;20.90;99.90;;;;;;5024670;28;20674;-80
2022/10/27 13:00:20;;;;;;;4.03;1.58;;;20.90;99.90;;;;;;5044730;28;20717;-81
2022/10/27 13:03:08;;;;;;;3.88;1.88;;;20.90;99.90;;;;;;5028488;28;20201;-82
2022/10/27 13:06:14;;;;;;;7.32;2.08;;;20.90;99.90;;;;;;5043106;28;20221;-80
2022/10/27 13:09:17;;;;;;;4.68;1.90;;;20.80;99.90;;;;;;5032294;28;20242;-82
2022/10/27 13:11:59;;;;;;;6.22;1.80;;;20.80;99.90;;;;;;5040751;28;20205;-82
2022/10/27 13:14:57;;;;;;;4.22;1.80;;;20.70;99.90;;;;;;5039134;28;20234;-82
2022/10/27 13:17:44;;;;;;;6.18;1.90;;;20.60;99.90;;;;;;5044237;28;20256;-84
2022/10/27 13:20:44;;;;;;;3.75;1.70;;;20.40;99.90;;;;;;5047981;28;20754;-82
2022/10/27 13:23:50;;;;;;;4.85;2.10;;;20.30;99.90;;;;;;5028125;28;20199;-82
2022/10/27 13:26:33;;;;;;;5.90;2.15;;;20.30;99.90;;;;;;5049369;28;20240;-84
2022/10/27 13:29:10;;;;;;;4.88;1.75;;;20.30;99.90;;;;;;5028439;28;20209;-83
2022/10/27 13:31:38;;;;;;;4.20;2.35;;;20.20;99.90;;;;;;5044098;28;20219;-82
2022/10/27 13:34:08;;;;;;;6.43;2.10;;;20.40;99.90;;;;;;5045378;28;20236;-82
2022/10/27 13:36:36;;;;;;;5.32;2.20;;;20.30;99.90;;;;;;5027491;28;20201;-82